General Aviation Weather

Text Reports

Enter one or more of the following location identifiers separated by a space:

Zip Code, Four-Character ICAO or Three-Character IATA airport codes.

METAR - Aviation Routine Weather Report
KGGP - Logansport, Indiana
Updated at 9:55 AM GMT on February 13, 2016 (4:55 AM EST):
METAR KGGP 130955Z AUTO 30007KT 10SM CLR M13/M20 A3047 RMK AO2
TAF - Terminal Area Forecast
KGGP - Logansport, Indiana
Updated at 9:55 AM GMT on February 13, 2016 (4:55 AM EST):
No TAF is currently available for this location.
Decoded:
No decoded TAF is available.
PIREP - Pilot Weather Report
KGGP - Logansport, Indiana
Updated at 9:55 AM GMT on February 13, 2016 (4:55 AM EST):
No PIREP is currently available for this location.
AIRMET - Airmens Meteorological Information
KGGP - Logansport, Indiana
Updated at 9:55 AM GMT on February 13, 2016 (4:55 AM EST):
No AIRMET is currently available for this location.
SIGMET - Significant Meteorological Information
KGGP - Logansport, Indiana
Updated at 9:55 AM GMT on February 13, 2016 (4:55 AM EST):
No SIGMET is currently available for this location.
NOTAM - Notice to Airmen
KGGP - Logansport, Indiana
Updated at 9:55 AM GMT on February 13, 2016 (4:55 AM EST):
No NOTAM is currently available for this location.
Forecast Area
KGGP - Logansport, Indiana
Updated at 9:55 AM GMT on February 13, 2016 (4:55 AM EST):
No NOTAM is currently available for this location.
Aviation Weather Maps